Terminal Aerodrome Forecast
Issued by NWS Tuscon, AZ

Home | Current Version | Previous Version | Text Only | Print | Product List | Glossary On
Versions: 1 2 3 4 5 6 7 8 9 10 11 12 13 14 15 16 17 18 19
000
FTUS45 KTWC 230500
TAFDUG
TAF
KDUG 230520Z 2306/2406 10012KT P6SM VCSH SCT100 OVC200
     FM231100 10007KT P6SM SCT120 BKN200
     FM231400 10015G20KT P6SM SCT120 SCT250
     FM232100 12012G19KT P6SM VCTS SCT100CB BKN160
     FM240100 09010KT P6SM VCSH SCT100 BKN150=

USA.gov is the U.S. government's official web portal to all federal, state and local government web resources and services.